Time;durP1;ratioP1;P1;durP2;ratioP2;P2;SDS_P1;SDS_P2;PMS_P1;PMS_P2;Temp;Humidity;BMP_temperature;BMP_pressure;BME280_temperature;BME280_humidity;BME280_pressure;Samples;Min_cycle;Max_cycle;Signal;HPM_P1;HPM_P2
2021/06/10 00:01:40;;;;;;;;;12.00;11.50;;;;;22.48;50.83;101840.97;5069664;27;48244;-69
2021/06/10 00:04:05;;;;;;;;;13.25;11.50;;;;;22.47;50.82;101845.50;5073513;27;45396;-66
2021/06/10 00:06:31;;;;;;;;;10.25;10.25;;;;;22.47;51.01;101844.69;5069357;27;47027;-66
2021/06/10 00:08:56;;;;;;;;;11.00;10.75;;;;;22.45;51.65;101842.22;5074826;27;45400;-72
2021/06/10 00:11:21;;;;;;;;;11.00;10.75;;;;;22.44;51.81;101845.91;5075985;27;45888;-72
2021/06/10 00:13:47;;;;;;;;;12.50;10.50;;;;;22.42;51.48;101842.59;5071725;27;45582;-68
2021/06/10 00:16:12;;;;;;;;;11.75;10.50;;;;;22.42;51.93;101841.75;5075271;27;45544;-72
2021/06/10 00:18:38;;;;;;;;;11.50;11.50;;;;;22.40;51.83;101838.44;5069899;27;45519;-69
2021/06/10 00:21:04;;;;;;;;;14.00;12.00;;;;;22.40;52.82;101839.25;5078442;27;45807;-66
2021/06/10 00:23:29;;;;;;;;;14.00;13.00;;;;;22.39;52.91;101843.00;5071506;27;45338;-66
2021/06/10 00:25:54;;;;;;;;;12.00;11.50;;;;;;;;5085203;27;46754;-66
2021/06/10 00:28:20;;;;;;;;;14.67;12.00;;;;;22.35;52.42;101840.91;5072548;27;45361;-67
2021/06/10 00:30:45;;;;;;;;;10.25;10.25;;;;;22.33;52.24;101838.44;5068562;27;45519;-65
2021/06/10 00:33:11;;;;;;;;;12.50;11.75;;;;;22.33;52.47;101850.03;5072471;27;45383;-71
2021/06/10 00:35:36;;;;;;;;;11.25;11.25;;;;;22.30;52.61;101844.19;5062585;27;46592;-66
2021/06/10 00:38:03;;;;;;;;;11.75;10.75;;;;;22.28;52.45;101839.03;5070635;27;45755;-69
2021/06/10 00:40:33;;;;;;;;;11.75;10.50;;;;;22.26;52.80;101838.38;5082051;27;45691;-67
2021/06/10 00:42:59;;;;;;;;;12.50;11.00;;;;;22.26;52.81;101845.63;5075097;27;45492;-70
2021/06/10 00:45:26;;;;;;;;;12.00;11.00;;;;;22.23;52.91;101841.50;5076870;27;46521;-69
2021/06/10 00:47:53;;;;;;;;;10.25;8.25;;;;;22.21;53.96;101848.94;5074386;27;45577;-69
2021/06/10 00:50:29;;;;;;;;;13.00;11.50;;;;;22.19;54.40;101852.81;5062444;27;45568;-64
2021/06/10 00:52:55;;;;;;;;;12.50;11.75;;;;;22.17;54.88;101841.41;5086168;27;45636;-65
2021/06/10 00:55:20;;;;;;;;;11.25;11.00;;;;;22.15;54.93;101846.97;5072129;27;46328;-65
2021/06/10 00:57:46;;;;;;;;;11.75;10.00;;;;;22.15;54.65;101854.25;5072730;27;45443;-67
2021/06/10 01:00:13;;;;;;;;;9.75;9.75;;;;;22.15;55.28;101844.28;5071705;27;45950;-67
2021/06/10 01:02:39;;;;;;;;;11.25;10.75;;;;;22.14;54.68;101845.34;5068101;27;45779;-68
2021/06/10 01:05:06;;;;;;;;;10.50;10.50;;;;;22.13;55.29;101846.34;5071139;27;45412;-69
2021/06/10 01:07:58;;;;;;;;;11.50;11.00;;;;;22.14;55.09;101844.50;5070690;27;45478;-68
2021/06/10 01:10:40;;;;;;;;;11.00;11.00;;;;;22.15;55.29;101843.47;5068046;27;45480;-70
2021/06/10 01:13:25;;;;;;;;;10.50;10.50;;;;;22.15;55.42;101840.78;5076375;27;45540;-64
2021/06/10 01:15:56;;;;;;;;;9.50;9.50;;;;;22.15;55.17;101846.97;5069389;27;47729;-70
2021/06/10 01:18:25;;;;;;;;;10.75;9.75;;;;;22.16;55.33;101847.84;5061753;27;45479;-72
2021/06/10 01:20:53;;;;;;;;;12.25;12.00;;;;;22.16;55.79;101842.47;5074725;27;45435;-69
2021/06/10 01:23:31;;;;;;;;;12.00;11.50;;;;;22.18;55.24;101845.75;5075441;27;45912;-70
2021/06/10 01:26:15;;;;;;;;;11.00;11.00;;;;;22.19;55.57;101845.56;5064380;27;46590;-70
2021/06/10 01:28:44;;;;;;;;;11.00;10.25;;;;;22.21;55.75;101842.72;5070709;27;45443;-64
2021/06/10 01:31:13;;;;;;;;;10.50;9.50;;;;;22.21;55.75;101837.34;5070986;27;45499;-69
2021/06/10 01:33:52;;;;;;;;;10.25;10.25;;;;;22.22;55.98;101845.19;5077798;27;45930;-66
2021/06/10 01:36:24;;;;;;;;;10.25;10.25;;;;;22.20;55.93;101838.34;5068409;28;45363;-66
2021/06/10 01:38:53;;;;;;;;;11.00;10.50;;;;;22.18;55.26;101822.38;5069756;27;45775;-69
2021/06/10 01:41:21;;;;;;;;;9.75;9.00;;;;;22.18;55.16;101821.53;5070316;27;45463;-69
2021/06/10 01:43:47;;;;;;;;;10.25;10.25;;;;;22.17;55.19;101826.09;5065727;27;45444;-65
2021/06/10 01:46:13;;;;;;;;;11.00;9.75;;;;;22.18;54.83;101837.69;5079761;27;46571;-65
2021/06/10 01:48:45;;;;;;;;;12.00;11.25;;;;;22.16;54.85;101823.59;5069933;27;45590;-65
2021/06/10 01:51:12;;;;;;;;;11.50;11.25;;;;;22.16;55.05;101820.91;5079130;27;45391;-65
2021/06/10 01:53:40;;;;;;;;;11.25;11.00;;;;;22.16;54.85;101831.69;5070599;27;45428;-65
2021/06/10 01:56:07;;;;;;;;;12.00;11.00;;;;;22.15;55.23;101828.13;5078819;27;47245;-68
2021/06/10 01:58:35;;;;;;;;;11.25;9.25;;;;;22.12;55.35;101833.94;5070612;27;45353;-67
2021/06/10 02:01:02;;;;;;;;;11.50;10.00;;;;;22.11;55.44;101835.78;5076656;27;45492;-64
2021/06/10 02:03:28;;;;;;;;;12.50;11.00;;;;;22.10;55.10;101823.34;5074537;27;45481;-65
2021/06/10 02:05:54;;;;;;;;;11.50;10.00;;;;;22.09;55.10;101837.84;5080024;27;46621;-69
2021/06/10 02:08:20;;;;;;;;;10.00;10.00;;;;;22.06;55.41;101832.06;5072876;27;45488;-69
2021/06/10 02:10:50;;;;;;;;;13.25;11.25;;;;;22.02;55.80;101822.69;5069522;27;45420;-72
2021/06/10 02:13:21;;;;;;;;;10.00;9.50;;;;;21.99;55.08;101821.25;5071638;27;45729;-67
2021/06/10 02:15:47;;;;;;;;;10.50;10.50;;;;;21.98;55.17;101822.25;5074675;27;46438;-66
2021/06/10 02:18:13;;;;;;;;;11.25;11.25;;;;;21.95;55.78;101811.88;5076380;27;45538;-64
2021/06/10 02:20:39;;;;;;;;;12.00;10.00;;;;;21.91;55.26;101816.03;5074964;27;45622;-72
2021/06/10 02:23:06;;;;;;;;;11.25;11.25;;;;;21.86;55.82;101811.25;5075536;27;45495;-69
2021/06/10 02:25:31;;;;;;;;;11.00;10.25;;;;;21.84;55.65;101807.09;5070601;27;46651;-67
2021/06/10 02:27:57;;;;;;;;;14.50;13.00;;;;;21.82;55.46;101811.81;5080065;27;45410;-64
2021/06/10 02:30:22;;;;;;;;;8.75;8.75;;;;;21.81;55.80;101812.84;5073501;27;45493;-72
2021/06/10 02:32:47;;;;;;;;;12.75;11.00;;;;;21.79;55.61;101820.31;5071103;27;45440;-70
2021/06/10 02:35:13;;;;;;;;;11.25;11.25;;;;;21.77;55.56;101825.03;5069789;27;54653;-69
2021/06/10 02:37:42;;;;;;;;;10.00;9.25;;;;;21.73;55.84;101823.75;5074659;27;45489;-71
2021/06/10 02:40:14;;;;;;;;;11.50;11.50;;;;;21.71;55.86;101821.28;5082380;27;45309;-65
2021/06/10 02:42:40;;;;;;;;;10.00;9.75;;;;;21.70;56.24;101816.91;5081249;27;45365;-69
2021/06/10 02:45:07;;;;;;;;;13.50;11.75;;;;;21.68;56.27;101818.97;5073228;27;46456;-72
2021/06/10 02:47:33;;;;;;;;;8.50;8.50;;;;;21.65;55.68;101822.88;5082218;27;45513;-67
2021/06/10 02:50:02;;;;;;;;;10.50;10.50;;;;;21.61;55.55;101818.09;5073250;27;45423;-66
2021/06/10 02:52:28;;;;;;;;;12.75;12.00;;;;;21.59;56.00;101815.63;5086929;27;45519;-66
2021/06/10 02:54:55;;;;;;;;;9.75;9.00;;;;;21.57;55.89;101811.47;5083592;27;46192;-72
2021/06/10 02:57:22;;;;;;;;;12.25;10.75;;;;;21.54;55.44;101817.22;5073000;27;45451;-70
2021/06/10 02:59:50;;;;;;;;;9.75;9.75;;;;;21.52;55.88;101817.41;5082030;27;45364;-70
2021/06/10 03:02:16;;;;;;;;;12.75;11.00;;;;;21.49;55.69;101817.81;5068072;27;45532;-70
2021/06/10 03:04:43;;;;;;;;;10.25;10.00;;;;;21.49;56.02;101820.50;5081741;27;45848;-69
2021/06/10 03:07:13;;;;;;;;;10.75;10.75;;;;;21.46;56.30;101823.56;5074700;27;45472;-72
2021/06/10 03:09:40;;;;;;;;;10.00;10.00;;;;;21.44;55.91;101823.78;5067192;27;45773;-66
2021/06/10 03:12:08;;;;;;;;;11.00;11.00;;;;;21.44;56.33;101822.94;5068685;27;45544;-69
2021/06/10 03:14:33;;;;;;;;;13.50;12.25;;;;;21.40;55.88;101813.59;5081430;27;46241;-67
2021/06/10 03:16:59;;;;;;;;;10.25;10.00;;;;;21.39;55.91;101823.53;5074029;27;45472;-67
2021/06/10 03:19:25;;;;;;;;;11.00;11.00;;;;;21.36;55.92;101821.19;5072830;27;45454;-67
2021/06/10 03:21:51;;;;;;;;;11.25;10.75;;;;;21.33;56.34;101820.75;5072794;27;45891;-66
2021/06/10 03:24:18;;;;;;;;;11.25;11.00;;;;;21.31;56.42;101820.09;5072656;27;46493;-72
2021/06/10 03:26:46;;;;;;;;;9.50;9.50;;;;;21.28;56.29;101815.94;5071798;27;45431;-70
2021/06/10 03:29:11;;;;;;;;;13.50;13.25;;;;;21.24;55.91;101807.47;5071621;27;45531;-66
2021/06/10 03:31:38;;;;;;;;;10.00;9.50;;;;;21.23;56.11;101815.72;5074425;27;45485;-67
2021/06/10 03:34:04;;;;;;;;;13.75;11.50;;;;;21.20;56.78;101811.53;5081030;27;45561;-67
2021/06/10 03:36:31;;;;;;;;;11.50;11.25;;;;;21.16;56.58;101812.94;5079121;27;45453;-65
2021/06/10 03:38:58;;;;;;;;;12.50;11.00;;;;;21.13;56.60;101813.34;5080346;27;45509;-72
2021/06/10 03:41:25;;;;;;;;;13.00;10.00;;;;;21.10;56.69;101808.34;5071730;27;45412;-68
2021/06/10 03:43:51;;;;;;;;;9.75;8.25;;;;;21.03;56.13;101805.59;5072151;27;45883;-63
2021/06/10 03:46:17;;;;;;;;;9.00;9.00;;;;;21.00;56.14;101800.63;5081716;27;45459;-64
2021/06/10 03:48:42;;;;;;;;;11.75;10.50;;;;;20.98;56.34;101796.47;5071381;27;45569;-64
2021/06/10 03:51:16;;;;;;;;;13.25;10.50;;;;;20.93;56.03;101798.91;5068070;27;45635;-66
2021/06/10 03:53:49;;;;;;;;;13.50;12.25;;;;;20.88;56.36;101791.41;5072292;27;45385;-72
2021/06/10 03:56:14;;;;;;;;;13.50;10.50;;;;;20.85;56.42;101794.50;5064701;27;45689;-66
2021/06/10 03:58:40;;;;;;;;;11.75;11.00;;;;;20.80;56.46;101796.91;5071720;27;45365;-69
2021/06/10 04:01:05;;;;;;;;;12.00;11.50;;;;;20.78;56.57;101796.28;5088250;27;45428;-68
2021/06/10 04:03:31;;;;;;;;;9.50;9.50;;;;;20.72;56.48;101789.81;5073004;27;46273;-65
2021/06/10 04:05:57;;;;;;;;;8.75;8.75;;;;;20.68;56.70;101796.59;5072972;27;45378;-65
2021/06/10 04:08:22;;;;;;;;;11.00;8.50;;;;;20.67;56.80;101799.44;5078948;27;45460;-68
2021/06/10 04:10:48;;;;;;;;;11.00;8.25;;;;;20.65;56.69;101793.44;5074838;27;45451;-66
2021/06/10 04:13:14;;;;;;;;;11.25;11.25;;;;;20.63;56.41;101798.19;5072885;27;46716;-72
2021/06/10 04:15:39;;;;;;;;;11.50;10.75;;;;;20.61;56.70;101795.69;5068834;27;45731;-65
2021/06/10 04:18:05;;;;;;;;;9.00;9.00;;;;;20.58;56.79;101802.25;5073886;27;45481;-67
2021/06/10 04:20:30;;;;;;;;;10.00;9.00;;;;;20.59;57.34;101806.59;5077855;27;45616;-73
2021/06/10 04:22:55;;;;;;;;;10.75;10.25;;;;;20.59;56.79;101805.78;5067158;27;48052;-67
2021/06/10 04:25:21;;;;;;;;;8.75;7.75;;;;;20.60;56.09;101816.34;5080498;27;45508;-73
2021/06/10 04:27:47;;;;;;;;;12.75;9.00;;;;;20.61;56.79;101809.09;5072329;27;45628;-70
2021/06/10 04:30:13;;;;;;;;;11.50;9.00;;;;;20.63;56.63;101814.31;5077777;27;45474;-70
2021/06/10 04:32:41;;;;;;;;;10.50;8.75;;;;;20.65;56.49;101801.47;5069296;27;46419;-67
2021/06/10 04:35:07;;;;;;;;;10.00;9.25;;;;;20.68;55.73;101806.50;5072061;27;45526;-70
2021/06/10 04:37:33;;;;;;;;;9.50;9.00;;;;;20.71;55.94;101806.94;5076313;27;45800;-70
2021/06/10 04:39:59;;;;;;;;;9.50;8.50;;;;;20.70;55.48;101810.66;5077602;27;45656;-69
2021/06/10 04:42:25;;;;;;;;;9.00;8.25;;;;;20.72;55.09;101808.63;5084513;27;46582;-67
2021/06/10 04:44:51;;;;;;;;;10.00;8.50;;;;;20.74;54.59;101822.66;5070453;27;45762;-67
2021/06/10 04:47:17;;;;;;;;;9.25;8.50;;;;;20.78;54.69;101833.88;5079947;27;45667;-68
2021/06/10 04:49:44;;;;;;;;;8.75;8.00;;;;;20.77;53.56;101830.38;5085648;27;45447;-66
2021/06/10 04:52:09;;;;;;;;;7.50;7.50;;;;;20.77;52.99;101827.69;5073422;27;46207;-65
2021/06/10 04:54:35;;;;;;;;;4.75;4.50;;;;;20.79;52.78;101820.25;5073162;27;45460;-66
2021/06/10 04:57:01;;;;;;;;;6.50;6.50;;;;;20.80;52.17;101819.25;5071632;27;45416;-67
2021/06/10 04:59:26;;;;;;;;;6.00;5.50;;;;;20.80;51.95;101821.91;5071611;27;45322;-73
2021/06/10 05:01:52;;;;;;;;;5.50;5.25;;;;;20.78;51.22;101821.28;5069630;27;45618;-73
2021/06/10 05:04:17;;;;;;;;;6.25;4.75;;;;;20.77;51.19;101821.44;5073525;27;45475;-65
2021/06/10 05:06:42;;;;;;;;;5.50;4.25;;;;;20.74;51.06;101833.41;5080984;27;45494;-69
2021/06/10 05:09:08;;;;;;;;;5.00;5.00;;;;;20.73;50.95;101822.88;5068117;27;45687;-67
2021/06/10 05:11:33;;;;;;;;;6.00;5.50;;;;;20.70;50.42;101829.47;5077563;27;45778;-67
2021/06/10 05:13:58;;;;;;;;;6.00;6.00;;;;;20.70;50.15;101829.47;5074980;27;45459;-67
2021/06/10 05:16:28;;;;;;;;;5.00;4.00;;;;;20.72;50.90;101834.63;5071024;27;45419;-70
2021/06/10 05:18:53;;;;;;;;;5.75;5.00;;;;;20.74;50.25;101838.78;5072527;27;45460;-70
2021/06/10 05:21:19;;;;;;;;;6.00;5.00;;;;;20.75;49.57;101840.47;5068945;27;46314;-66
2021/06/10 05:23:44;;;;;;;;;3.25;3.25;;;;;20.77;50.07;101835.75;5070960;27;45674;-69
2021/06/10 05:26:10;;;;;;;;;6.25;3.75;;;;;20.80;48.86;101838.03;5071022;27;45498;-70
2021/06/10 05:28:36;;;;;;;;;5.75;3.75;;;;;20.83;48.68;101821.53;5073420;27;45552;-70
2021/06/10 05:31:06;;;;;;;;;4.00;4.00;;;;;20.89;48.69;101821.78;5073330;27;45971;-68
2021/06/10 05:33:32;;;;;;;;;4.75;3.75;;;;;20.93;48.38;101825.78;5070832;27;45431;-66
2021/06/10 05:35:57;;;;;;;;;4.25;4.25;;;;;20.97;49.42;101829.75;5067967;27;45546;-65
2021/06/10 05:38:23;;;;;;;;;4.50;4.50;;;;;21.03;48.98;101831.66;5070515;27;45562;-65
2021/06/10 05:40:48;;;;;;;;;4.00;4.00;;;;;21.08;47.77;101834.59;5069217;27;45666;-68
2021/06/10 05:43:13;;;;;;;;;5.00;4.50;;;;;21.12;47.66;101830.50;5069179;27;45341;-71
2021/06/10 05:45:39;;;;;;;;;5.00;5.00;;;;;21.18;47.32;101837.78;5070748;27;45474;-67
2021/06/10 05:48:06;;;;;;;;;7.25;5.00;;;;;21.16;47.51;101837.13;5070786;27;45491;-67
2021/06/10 05:50:31;;;;;;;;;7.00;4.50;;;;;21.20;47.06;101834.91;5070792;27;47172;-64
2021/06/10 05:52:57;;;;;;;;;6.50;4.50;;;;;21.25;47.81;101830.63;5075354;27;49380;-70
2021/06/10 05:55:22;;;;;;;;;7.00;6.00;;;;;21.29;47.36;101830.22;5073641;27;45460;-67
2021/06/10 05:57:48;;;;;;;;;5.25;5.25;;;;;21.28;46.70;101824.03;5063225;27;45454;-70
2021/06/10 06:00:15;;;;;;;;;4.50;3.75;;;;;21.33;46.27;101826.13;5065517;27;45470;-66
2021/06/10 06:02:40;;;;;;;;;6.00;5.00;;;;;21.40;45.50;101833.25;5067069;27;45589;-68
2021/06/10 06:05:06;;;;;;;;;3.00;2.75;;;;;21.43;46.18;101837.41;5060266;27;45640;-69
2021/06/10 06:07:31;;;;;;;;;6.00;4.00;;;;;21.46;45.11;101848.63;5062880;27;45378;-67
2021/06/10 06:09:57;;;;;;;;;1.75;1.75;;;;;21.49;44.71;101842.03;5069593;27;45475;-72
2021/06/10 06:12:23;;;;;;;;;3.00;3.00;;;;;21.53;44.13;101840.59;5066793;27;45461;-72
2021/06/10 06:14:49;;;;;;;;;4.00;3.00;;;;;21.51;44.38;101844.50;5069006;27;45906;-69
2021/06/10 06:17:16;;;;;;;;;3.75;3.00;;;;;21.59;44.50;101847.06;5075049;27;45421;-71
2021/06/10 06:19:41;;;;;;;;;2.50;2.50;;;;;21.66;45.46;101858.69;5070068;27;47245;-66
2021/06/10 06:22:08;;;;;;;;;3.25;3.00;;;;;21.81;44.62;101858.56;5072149;27;45410;-66
2021/06/10 06:24:34;;;;;;;;;3.00;3.00;;;;;21.99;44.41;101858.09;5066825;27;45457;-68
2021/06/10 06:27:00;;;;;;;;;3.25;2.75;;;;;22.17;44.06;101852.19;5065512;27;45614;-67
2021/06/10 06:29:25;;;;;;;;;3.50;2.50;;;;;22.29;44.48;101858.69;5073818;27;46230;-68
2021/06/10 06:31:51;;;;;;;;;4.00;4.00;;;;;22.41;43.54;101849.00;5078059;27;45679;-66
2021/06/10 06:34:17;;;;;;;;;3.00;3.00;;;;;22.48;42.97;101855.25;5062854;27;45488;-66
2021/06/10 06:36:42;;;;;;;;;4.25;4.25;;;;;22.56;42.64;101856.94;5068140;27;46076;-71
2021/06/10 06:39:08;;;;;;;;;3.00;3.00;;;;;22.65;43.23;101854.88;5065707;27;45545;-65
2021/06/10 06:41:35;;;;;;;;;4.25;3.25;;;;;22.67;42.00;101855.53;5063031;27;45815;-64
2021/06/10 06:44:01;;;;;;;;;4.00;3.50;;;;;22.64;42.38;101861.31;5070677;27;45456;-67
2021/06/10 06:46:26;;;;;;;;;4.50;3.25;;;;;22.71;42.90;101867.56;5069915;27;45786;-66
2021/06/10 06:48:52;;;;;;;;;5.50;4.00;;;;;22.78;42.36;101870.28;5062477;27;46396;-67
2021/06/10 06:51:17;;;;;;;;;6.75;3.00;;;;;22.82;42.32;101875.03;5069639;27;45521;-65
2021/06/10 06:53:42;;;;;;;;;4.50;4.00;;;;;22.85;42.64;101873.81;5073571;27;45510;-68
2021/06/10 06:56:08;;;;;;;;;5.75;3.00;;;;;22.83;43.55;101882.13;5064659;27;45541;-69
2021/06/10 06:58:33;;;;;;;;;4.00;4.00;;;;;22.79;42.36;101874.63;5070549;27;45586;-67
2021/06/10 07:00:59;;;;;;;;;3.50;3.00;;;;;22.72;43.27;101885.38;5065558;27;45728;-68
2021/06/10 07:03:24;;;;;;;;;4.75;3.50;;;;;22.65;43.48;101887.22;5064692;27;45792;-67
2021/06/10 07:05:52;;;;;;;;;3.00;3.00;;;;;22.61;42.76;101891.38;5059112;27;45834;-69
2021/06/10 07:08:19;;;;;;;;;3.00;3.00;;;;;22.57;42.84;101887.41;5068585;27;45695;-66
2021/06/10 07:10:44;;;;;;;;;5.75;4.00;;;;;22.55;43.33;101898.38;5060032;27;45714;-68
2021/06/10 07:13:09;;;;;;;;;3.00;2.00;;;;;22.48;44.89;101901.06;5070530;27;45675;-66
2021/06/10 07:15:37;;;;;;;;;4.50;2.75;;;;;22.45;44.88;101901.47;5065568;27;45487;-69
2021/06/10 07:18:02;;;;;;;;;4.00;3.00;;;;;22.45;44.19;101901.47;5063383;27;46010;-68
2021/06/10 07:20:28;;;;;;;;;3.00;3.00;;;;;22.45;44.03;101906.84;5063558;27;45962;-66
2021/06/10 07:22:54;;;;;;;;;4.00;4.00;;;;;22.49;44.87;101908.09;5068755;27;45517;-72
2021/06/10 07:25:20;;;;;;;;;3.25;3.00;;;;;22.55;43.61;101909.16;5073077;27;45477;-66
2021/06/10 07:27:46;;;;;;;;;3.00;3.00;;;;;22.60;42.95;101906.72;5067877;27;46643;-67
2021/06/10 07:30:12;;;;;;;;;2.50;2.50;;;;;22.72;43.01;101905.09;5080631;27;45460;-67
2021/06/10 07:32:38;;;;;;;;;4.50;4.00;;;;;22.87;42.82;101896.84;5065626;27;45489;-72
2021/06/10 07:35:04;;;;;;;;;4.25;3.00;;;;;23.04;41.57;101896.50;5065865;27;45511;-71
2021/06/10 07:37:30;;;;;;;;;2.25;2.25;;;;;23.20;41.51;101898.81;5061102;27;47533;-68
2021/06/10 07:39:56;;;;;;;;;2.25;2.25;;;;;23.45;40.67;101899.03;5072060;27;46147;-69
2021/06/10 07:42:21;;;;;;;;;4.00;3.00;;;;;23.94;40.25;101894.28;5070160;27;45766;-68
2021/06/10 07:44:47;;;;;;;;;3.00;3.00;;;;;24.59;39.74;101895.16;5065564;27;45584;-68
2021/06/10 07:47:13;;;;;;;;;3.25;3.00;;;;;25.24;38.13;101900.41;5062362;27;46197;-68
2021/06/10 07:49:39;;;;;;;;;2.50;2.50;;;;;25.80;38.43;101900.59;5087317;27;45472;-64
2021/06/10 07:52:05;;;;;;;;;4.75;2.75;;;;;26.31;37.56;101905.72;5076486;27;45644;-69
2021/06/10 07:54:31;;;;;;;;;3.50;3.00;;;;;26.95;36.94;101906.19;5064533;27;45567;-70
2021/06/10 07:56:56;;;;;;;;;2.00;2.00;;;;;27.47;35.86;101902.88;5079590;27;46434;-67
2021/06/10 07:59:27;;;;;;;;;4.00;4.00;;;;;28.08;35.52;101901.63;5083750;27;45545;-66
2021/06/10 08:01:56;;;;;;;;;3.00;3.00;;;;;29.02;30.36;101902.41;5071827;27;45684;-67
2021/06/10 08:04:22;;;;;;;;;3.00;3.00;;;;;30.39;31.12;101895.56;5071455;27;45624;-69
2021/06/10 08:06:48;;;;;;;;;3.75;3.75;;;;;33.05;30.47;101899.28;5069528;28;45538;-71
2021/06/10 08:09:13;;;;;;;;;2.25;2.25;;;;;35.44;27.82;101892.31;5064003;27;45584;-71
2021/06/10 08:11:44;;;;;;;;;4.00;3.50;;;;;37.31;21.86;101900.28;5067271;27;45755;-65
2021/06/10 08:14:10;;;;;;;;;4.75;3.75;;;;;38.74;24.49;101898.53;5060642;27;45703;-64
2021/06/10 08:16:36;;;;;;;;;3.25;3.25;;;;;40.37;22.77;101907.16;5090038;27;46070;-71
2021/06/10 08:19:01;;;;;;;;;5.00;4.00;;;;;41.83;21.38;101909.22;5067860;27;45437;-72
2021/06/10 08:21:27;;;;;;;;;2.25;2.00;;;;;43.10;20.43;101913.66;5066310;27;45543;-68
2021/06/10 08:23:52;;;;;;;;;3.00;2.25;;;;;44.19;19.17;101909.38;5073235;27;45492;-69
2021/06/10 08:26:18;;;;;;;;;2.75;2.75;;;;;45.01;18.60;101908.16;5067542;27;45807;-65
2021/06/10 08:28:44;;;;;;;;;2.00;2.00;;;;;45.53;16.25;101906.31;5069393;27;45354;-69
2021/06/10 08:31:09;;;;;;;;;2.25;1.75;;;;;45.87;16.44;101915.91;5077790;27;45459;-71
2021/06/10 08:33:37;;;;;;;;;2.00;2.00;;;;;46.07;16.71;101913.16;5076764;27;45395;-69
2021/06/10 08:36:06;;;;;;;;;3.50;2.25;;;;;45.84;16.59;101907.44;5070433;27;47454;-69
2021/06/10 08:38:33;;;;;;;;;2.25;2.25;;;;;46.21;14.05;101907.91;5070239;27;45574;-68
2021/06/10 08:41:00;;;;;;;;;3.75;3.00;;;;;45.85;16.29;101904.31;5068542;27;45537;-72
2021/06/10 08:43:25;;;;;;;;;4.00;2.75;;;;;45.34;13.47;101901.44;5071589;27;45540;-65
2021/06/10 08:46:00;;;;;;;;;5.50;4.00;;;;;44.53;15.03;101898.81;5068485;27;45930;-72
2021/06/10 08:48:29;;;;;;;;;4.50;2.50;;;;;44.27;14.49;101904.81;5067417;27;45716;-69
2021/06/10 08:50:55;;;;;;;;;3.00;3.00;;;;;44.31;15.77;101897.34;5079841;27;45457;-71
2021/06/10 08:53:20;;;;;;;;;4.00;2.75;;;;;44.97;14.53;101890.50;5080773;27;45577;-69
2021/06/10 08:55:48;;;;;;;;;2.00;2.00;;;;;45.33;15.31;101885.91;5071397;27;45467;-71
2021/06/10 08:58:13;;;;;;;;;4.00;3.00;;;;;46.13;15.44;101887.41;5071073;27;45444;-68
2021/06/10 09:00:38;;;;;;;;;3.00;3.00;;;;;46.75;14.58;101889.47;5072248;27;45596;-67
2021/06/10 09:03:06;;;;;;;;;4.00;3.00;;;;;47.17;14.71;101892.25;5069496;27;45413;-69
2021/06/10 09:05:31;;;;;;;;;2.25;2.25;;;;;47.48;13.61;101895.16;5066438;27;46229;-69
2021/06/10 09:08:01;;;;;;;;;2.25;2.25;;;;;47.67;12.57;101894.25;5072255;27;45334;-65
2021/06/10 09:10:30;;;;;;;;;3.00;3.00;;;;;47.16;12.56;101889.81;5073005;27;45479;-69
2021/06/10 09:12:58;;;;;;;;;4.25;2.75;;;;;46.43;12.43;101891.63;5064110;27;45428;-67
2021/06/10 09:15:26;;;;;;;;;5.00;3.00;;;;;45.65;13.55;101886.69;5067804;27;46424;-69
2021/06/10 09:17:54;;;;;;;;;5.00;3.50;;;;;44.69;14.69;101870.19;5073184;27;45473;-65
2021/06/10 09:20:19;;;;;;;;;4.50;3.50;;;;;43.84;15.59;101875.63;5072780;27;45419;-65
2021/06/10 09:22:47;;;;;;;;;3.25;3.00;;;;;42.68;16.10;101875.66;5076553;27;45728;-65
2021/06/10 09:25:16;;;;;;;;;4.00;3.00;;;;;42.10;16.50;101877.41;5074113;27;45420;-72
2021/06/10 09:28:01;;;;;;;;;3.50;3.00;;;;;41.24;17.69;101869.13;5072649;27;45947;-65
2021/06/10 09:30:30;;;;;;;;;3.25;3.00;;;;;40.71;18.43;101862.06;5065890;27;45467;-66
2021/06/10 09:32:56;;;;;;;;;3.00;2.75;;;;;40.59;18.63;101871.00;5073354;27;45312;-71
2021/06/10 09:35:30;;;;;;;;;2.00;2.00;;;;;40.40;18.52;101868.56;5071460;27;45516;-67
2021/06/10 09:37:58;;;;;;;;;5.00;5.00;;;;;40.44;18.29;101876.25;5073199;27;45674;-69
2021/06/10 09:40:24;;;;;;;;;4.00;4.00;;;;;40.12;18.59;101872.75;5089776;27;45480;-69
2021/06/10 09:42:49;;;;;;;;;5.00;3.00;;;;;39.93;18.50;101873.03;5074307;27;56618;-64
2021/06/10 09:45:20;;;;;;;;;4.00;4.00;;;;;39.46;19.14;101879.03;5076360;27;46143;-68
2021/06/10 09:47:50;;;;;;;;;4.25;4.00;;;;;39.32;20.08;101870.00;5075291;27;45411;-68
2021/06/10 09:50:27;;;;;;;;;5.50;4.00;;;;;39.33;20.13;101871.63;5082254;27;45587;-68
2021/06/10 09:52:55;;;;;;;;;4.50;4.50;;;;;39.03;19.71;101874.06;5082881;27;45373;-70
2021/06/10 09:55:34;;;;;;;;;7.00;6.00;;;;;38.83;19.49;101874.56;5081913;27;46196;-70
2021/06/10 09:58:15;;;;;;;;;4.50;4.50;;;;;38.55;20.62;101871.88;5077026;27;45467;-70
2021/06/10 10:00:47;;;;;;;;;7.00;4.25;;;;;38.54;20.65;101870.28;5071448;27;45377;-68
2021/06/10 10:03:26;;;;;;;;;5.25;4.50;;;;;38.49;20.87;101871.19;5073494;27;45459;-71
2021/06/10 10:05:54;;;;;;;;;5.25;4.25;;;;;38.35;20.62;101875.09;5078269;27;46268;-71
2021/06/10 10:08:20;;;;;;;;;4.25;4.25;;;;;38.25;20.19;101876.97;5076239;27;45397;-69
2021/06/10 10:10:46;;;;;;;;;3.25;3.25;;;;;38.12;20.35;101871.47;5076449;27;45473;-65
2021/06/10 10:13:16;;;;;;;;;7.00;4.75;;;;;37.73;21.21;101876.38;5078530;27;45504;-67
2021/06/10 10:15:43;;;;;;;;;4.25;4.25;;;;;37.78;21.17;101876.25;5075930;27;46384;-69
2021/06/10 10:18:10;;;;;;;;;4.00;4.00;;;;;38.01;20.21;101877.22;5070948;27;45597;-69
2021/06/10 10:20:37;;;;;;;;;4.50;4.00;;;;;37.95;21.58;101864.63;5081965;27;45466;-68
2021/06/10 10:23:04;;;;;;;;;7.00;4.50;;;;;38.15;21.70;101866.16;5070268;27;45447;-69
2021/06/10 10:25:30;;;;;;;;;5.00;4.00;;;;;38.39;21.28;101865.91;5074641;27;45516;-65
2021/06/10 10:27:57;;;;;;;;;5.25;4.75;;;;;38.70;21.56;101860.50;5067318;27;45916;-65
2021/06/10 10:30:23;;;;;;;;;4.50;4.25;;;;;38.64;20.75;101861.75;5064351;27;45508;-68
2021/06/10 10:32:49;;;;;;;;;6.75;5.00;;;;;38.26;20.03;101864.00;5066565;27;45907;-68
2021/06/10 10:35:34;;;;;;;;;5.75;5.00;;;;;37.41;21.01;101864.28;5071147;27;47123;-70
2021/06/10 10:38:10;;;;;;;;;4.00;4.00;;;;;36.84;20.90;101863.59;5068828;27;45488;-68
2021/06/10 10:40:40;;;;;;;;;5.75;4.00;;;;;36.71;23.11;101858.84;5069290;27;45597;-70
2021/06/10 10:43:13;;;;;;;;;5.00;5.00;;;;;37.07;21.82;101855.53;5070426;27;45675;-68
2021/06/10 10:45:48;;;;;;;;;6.50;5.75;;;;;37.03;22.34;101855.28;5072921;27;45759;-70
2021/06/10 10:48:31;;;;;;;;;8.25;7.00;;;;;37.07;22.63;101858.28;5066737;27;45659;-72
2021/06/10 10:50:57;;;;;;;;;5.50;5.25;;;;;37.43;22.79;101856.50;5068393;28;45523;-70
2021/06/10 10:53:23;;;;;;;;;6.75;5.25;;;;;37.92;21.45;101851.44;5065178;27;45574;-68
2021/06/10 10:56:04;;;;;;;;;5.75;5.25;;;;;38.60;21.89;101848.88;5065090;27;47404;-68
2021/06/10 10:58:29;;;;;;;;;4.50;4.00;;;;;39.39;20.90;101837.19;5066668;27;45546;-69
2021/06/10 11:00:56;;;;;;;;;6.75;5.00;;;;;40.08;17.84;101831.06;5070534;27;45847;-69
2021/06/10 11:03:39;;;;;;;;;7.25;7.00;;;;;40.19;19.83;101834.34;5067557;27;45409;-67
2021/06/10 11:06:34;;;;;;;;;6.75;5.50;;;;;40.21;17.33;101834.84;5064555;27;45600;-68
2021/06/10 11:09:14;;;;;;;;;6.25;6.00;;;;;39.71;18.35;101837.97;5053668;27;45558;-68
2021/06/10 11:12:04;;;;;;;;;6.00;5.75;;;;;39.61;20.38;101836.31;5071690;27;45447;-66
2021/06/10 11:14:46;;;;;;;;;7.25;7.25;;;;;40.00;20.02;101840.19;5068318;27;49600;-71
2021/06/10 11:17:26;;;;;;;;;7.50;7.50;;;;;40.53;20.49;101835.50;5066069;27;46464;-68
2021/06/10 11:20:06;;;;;;;;;8.25;8.00;;;;;41.04;19.48;101833.78;5071107;27;45601;-67
2021/06/10 11:22:35;;;;;;;;;7.50;6.50;;;;;41.41;19.02;101839.72;5074623;27;45479;-68